sensor_id;sensor_type;location;lat;lon;timestamp;temperature;humidity
7077;DHT22;3579;48.956;9.154;2022-10-16T00:00:40;21.80;56.90
7077;DHT22;3579;48.956;9.154;2022-10-16T00:03:07;21.80;56.80
7077;DHT22;3579;48.956;9.154;2022-10-16T00:05:37;21.80;56.90
7077;DHT22;3579;48.956;9.154;2022-10-16T00:08:04;21.80;57.40
7077;DHT22;3579;48.956;9.154;2022-10-16T00:10:30;21.80;56.90
7077;DHT22;3579;48.956;9.154;2022-10-16T00:12:56;21.80;56.90
7077;DHT22;3579;48.956;9.154;2022-10-16T00:15:22;21.80;56.90
7077;DHT22;3579;48.956;9.154;2022-10-16T00:17:48;21.80;56.90
7077;DHT22;3579;48.956;9.154;2022-10-16T00:20:15;21.80;56.90
7077;DHT22;3579;48.956;9.154;2022-10-16T00:22:41;21.80;56.90
7077;DHT22;3579;48.956;9.154;2022-10-16T00:25:07;21.80;56.90
7077;DHT22;3579;48.956;9.154;2022-10-16T00:27:33;21.80;56.90
7077;DHT22;3579;48.956;9.154;2022-10-16T00:29:59;21.80;56.90
7077;DHT22;3579;48.956;9.154;2022-10-16T00:32:26;21.80;57.00
7077;DHT22;3579;48.956;9.154;2022-10-16T00:34:52;21.70;56.90
7077;DHT22;3579;48.956;9.154;2022-10-16T00:37:20;21.70;56.90
7077;DHT22;3579;48.956;9.154;2022-10-16T00:39:47;21.70;57.20
7077;DHT22;3579;48.956;9.154;2022-10-16T00:42:16;21.70;56.90
7077;DHT22;3579;48.956;9.154;2022-10-16T00:47:34;21.70;56.90
7077;DHT22;3579;48.956;9.154;2022-10-16T00:50:10;21.70;57.00
7077;DHT22;3579;48.956;9.154;2022-10-16T00:52:39;21.70;57.50
7077;DHT22;3579;48.956;9.154;2022-10-16T00:55:08;21.70;57.00
7077;DHT22;3579;48.956;9.154;2022-10-16T00:57:35;21.70;57.00
7077;DHT22;3579;48.956;9.154;2022-10-16T01:00:05;21.60;56.90
7077;DHT22;3579;48.956;9.154;2022-10-16T01:02:31;21.70;57.00
7077;DHT22;3579;48.956;9.154;2022-10-16T01:04:57;21.70;57.00
7077;DHT22;3579;48.956;9.154;2022-10-16T01:12:56;21.70;57.00
7077;DHT22;3579;48.956;9.154;2022-10-16T01:15:36;21.70;57.10
7077;DHT22;3579;48.956;9.154;2022-10-16T01:18:39;21.70;57.10
7077;DHT22;3579;48.956;9.154;2022-10-16T01:21:13;21.60;57.00
7077;DHT22;3579;48.956;9.154;2022-10-16T01:24:08;21.60;57.00
7077;DHT22;3579;48.956;9.154;2022-10-16T01:32:28;21.60;57.00
7077;DHT22;3579;48.956;9.154;2022-10-16T01:35:21;21.60;57.10
7077;DHT22;3579;48.956;9.154;2022-10-16T01:38:14;21.60;57.10
7077;DHT22;3579;48.956;9.154;2022-10-16T01:40:48;21.60;57.10
7077;DHT22;3579;48.956;9.154;2022-10-16T01:43:19;21.60;57.10
7077;DHT22;3579;48.956;9.154;2022-10-16T01:45:47;21.60;57.10
7077;DHT22;3579;48.956;9.154;2022-10-16T01:48:17;21.60;57.10
7077;DHT22;3579;48.956;9.154;2022-10-16T01:50:48;21.60;57.10
7077;DHT22;3579;48.956;9.154;2022-10-16T01:53:17;21.60;57.10
7077;DHT22;3579;48.956;9.154;2022-10-16T01:55:46;21.50;57.00
7077;DHT22;3579;48.956;9.154;2022-10-16T01:58:14;21.60;57.10
7077;DHT22;3579;48.956;9.154;2022-10-16T02:00:43;21.50;57.10
7077;DHT22;3579;48.956;9.154;2022-10-16T02:03:12;21.50;57.60
7077;DHT22;3579;48.956;9.154;2022-10-16T02:05:45;21.50;57.00
7077;DHT22;3579;48.956;9.154;2022-10-16T02:08:12;21.50;57.10
7077;DHT22;3579;48.956;9.154;2022-10-16T02:10:39;21.50;57.10
7077;DHT22;3579;48.956;9.154;2022-10-16T02:13:10;21.50;57.10
7077;DHT22;3579;48.956;9.154;2022-10-16T02:15:37;21.50;57.10
7077;DHT22;3579;48.956;9.154;2022-10-16T02:18:05;21.50;57.10
7077;DHT22;3579;48.956;9.154;2022-10-16T02:20:36;21.50;57.10
7077;DHT22;3579;48.956;9.154;2022-10-16T02:23:07;21.50;57.10
7077;DHT22;3579;48.956;9.154;2022-10-16T02:25:40;21.50;57.10
7077;DHT22;3579;48.956;9.154;2022-10-16T02:28:12;21.50;57.10
7077;DHT22;3579;48.956;9.154;2022-10-16T02:30:52;21.50;57.10
7077;DHT22;3579;48.956;9.154;2022-10-16T02:33:22;21.50;57.10
7077;DHT22;3579;48.956;9.154;2022-10-16T02:35:50;21.50;57.20
7077;DHT22;3579;48.956;9.154;2022-10-16T02:38:17;21.50;57.10
7077;DHT22;3579;48.956;9.154;2022-10-16T02:40:45;21.50;57.20
7077;DHT22;3579;48.956;9.154;2022-10-16T02:43:11;21.50;57.10
7077;DHT22;3579;48.956;9.154;2022-10-16T02:45:38;21.40;57.10
7077;DHT22;3579;48.956;9.154;2022-10-16T02:48:05;21.40;57.10
7077;DHT22;3579;48.956;9.154;2022-10-16T02:50:32;21.50;57.20
7077;DHT22;3579;48.956;9.154;2022-10-16T02:52:58;21.40;57.10
7077;DHT22;3579;48.956;9.154;2022-10-16T02:55:24;21.40;57.10
7077;DHT22;3579;48.956;9.154;2022-10-16T02:57:50;21.40;57.10
7077;DHT22;3579;48.956;9.154;2022-10-16T03:00:17;21.40;57.10
7077;DHT22;3579;48.956;9.154;2022-10-16T03:02:44;21.40;57.10
7077;DHT22;3579;48.956;9.154;2022-10-16T03:05:10;21.40;57.10
7077;DHT22;3579;48.956;9.154;2022-10-16T03:07:36;21.40;57.10
7077;DHT22;3579;48.956;9.154;2022-10-16T03:10:03;21.40;57.20
7077;DHT22;3579;48.956;9.154;2022-10-16T03:12:29;21.40;57.20
7077;DHT22;3579;48.956;9.154;2022-10-16T03:14:57;21.40;57.20
7077;DHT22;3579;48.956;9.154;2022-10-16T03:17:24;21.40;57.20
7077;DHT22;3579;48.956;9.154;2022-10-16T03:19:50;21.40;57.10
7077;DHT22;3579;48.956;9.154;2022-10-16T03:22:17;21.40;57.10
7077;DHT22;3579;48.956;9.154;2022-10-16T03:24:43;21.40;57.20
7077;DHT22;3579;48.956;9.154;2022-10-16T03:27:09;21.40;57.20
7077;DHT22;3579;48.956;9.154;2022-10-16T03:29:36;21.40;57.20
7077;DHT22;3579;48.956;9.154;2022-10-16T03:32:02;21.40;57.20
7077;DHT22;3579;48.956;9.154;2022-10-16T03:34:29;21.40;57.20
7077;DHT22;3579;48.956;9.154;2022-10-16T03:36:55;21.40;57.20
7077;DHT22;3579;48.956;9.154;2022-10-16T03:39:21;21.30;57.10
7077;DHT22;3579;48.956;9.154;2022-10-16T03:41:47;21.30;57.20
7077;DHT22;3579;48.956;9.154;2022-10-16T03:44:14;21.30;57.20
7077;DHT22;3579;48.956;9.154;2022-10-16T03:46:40;21.30;57.20
7077;DHT22;3579;48.956;9.154;2022-10-16T03:49:06;21.30;57.20
7077;DHT22;3579;48.956;9.154;2022-10-16T03:51:32;21.30;57.20
7077;DHT22;3579;48.956;9.154;2022-10-16T03:53:58;21.30;57.20
7077;DHT22;3579;48.956;9.154;2022-10-16T03:56:24;21.30;57.20
7077;DHT22;3579;48.956;9.154;2022-10-16T03:58:50;21.30;57.20
7077;DHT22;3579;48.956;9.154;2022-10-16T04:01:16;21.30;57.20
7077;DHT22;3579;48.956;9.154;2022-10-16T04:03:42;21.30;57.20
7077;DHT22;3579;48.956;9.154;2022-10-16T04:06:08;21.30;57.20
7077;DHT22;3579;48.956;9.154;2022-10-16T04:08:35;21.30;57.20
7077;DHT22;3579;48.956;9.154;2022-10-16T04:11:03;21.30;57.20
7077;DHT22;3579;48.956;9.154;2022-10-16T04:13:29;21.30;57.20
7077;DHT22;3579;48.956;9.154;2022-10-16T04:15:55;21.30;57.30
7077;DHT22;3579;48.956;9.154;2022-10-16T04:18:21;21.30;57.30
7077;DHT22;3579;48.956;9.154;2022-10-16T04:20:47;21.20;57.20
7077;DHT22;3579;48.956;9.154;2022-10-16T04:23:13;21.20;57.20
7077;DHT22;3579;48.956;9.154;2022-10-16T04:25:39;21.20;57.20
7077;DHT22;3579;48.956;9.154;2022-10-16T04:28:05;21.20;57.20
7077;DHT22;3579;48.956;9.154;2022-10-16T04:30:31;21.20;57.20
7077;DHT22;3579;48.956;9.154;2022-10-16T04:32:59;21.20;57.30
7077;DHT22;3579;48.956;9.154;2022-10-16T04:35:25;21.20;57.30
7077;DHT22;3579;48.956;9.154;2022-10-16T04:37:51;21.20;57.30
7077;DHT22;3579;48.956;9.154;2022-10-16T04:40:17;21.20;57.30
7077;DHT22;3579;48.956;9.154;2022-10-16T04:42:43;21.20;57.30
7077;DHT22;3579;48.956;9.154;2022-10-16T04:45:09;21.20;57.30
7077;DHT22;3579;48.956;9.154;2022-10-16T04:47:36;21.20;57.30
7077;DHT22;3579;48.956;9.154;2022-10-16T04:50:02;21.20;57.30
7077;DHT22;3579;48.956;9.154;2022-10-16T04:52:28;21.20;57.30
7077;DHT22;3579;48.956;9.154;2022-10-16T04:54:54;21.20;57.30
7077;DHT22;3579;48.956;9.154;2022-10-16T04:57:22;21.20;57.30
7077;DHT22;3579;48.956;9.154;2022-10-16T04:59:48;21.20;57.50
7077;DHT22;3579;48.956;9.154;2022-10-16T05:02:14;21.10;57.30
7077;DHT22;3579;48.956;9.154;2022-10-16T05:04:40;21.10;57.30
7077;DHT22;3579;48.956;9.154;2022-10-16T05:07:06;21.10;57.30
7077;DHT22;3579;48.956;9.154;2022-10-16T05:09:32;21.10;57.30
7077;DHT22;3579;48.956;9.154;2022-10-16T05:11:58;21.10;57.30
7077;DHT22;3579;48.956;9.154;2022-10-16T05:14:24;21.10;57.30
7077;DHT22;3579;48.956;9.154;2022-10-16T05:16:50;21.10;57.30
7077;DHT22;3579;48.956;9.154;2022-10-16T05:19:17;21.10;57.30
7077;DHT22;3579;48.956;9.154;2022-10-16T05:21:43;21.10;57.30
7077;DHT22;3579;48.956;9.154;2022-10-16T05:24:09;21.10;57.40
7077;DHT22;3579;48.956;9.154;2022-10-16T05:26:36;21.10;57.40
7077;DHT22;3579;48.956;9.154;2022-10-16T05:29:02;21.10;57.40
7077;DHT22;3579;48.956;9.154;2022-10-16T05:31:28;21.10;57.40
7077;DHT22;3579;48.956;9.154;2022-10-16T05:33:58;21.10;57.40
7077;DHT22;3579;48.956;9.154;2022-10-16T05:36:25;21.10;57.40
7077;DHT22;3579;48.956;9.154;2022-10-16T05:38:52;21.10;57.40
7077;DHT22;3579;48.956;9.154;2022-10-16T05:41:18;21.10;57.40
7077;DHT22;3579;48.956;9.154;2022-10-16T05:43:48;21.00;57.30
7077;DHT22;3579;48.956;9.154;2022-10-16T05:46:14;21.10;57.40
7077;DHT22;3579;48.956;9.154;2022-10-16T05:48:40;21.10;57.40
7077;DHT22;3579;48.956;9.154;2022-10-16T05:51:08;21.00;57.40
7077;DHT22;3579;48.956;9.154;2022-10-16T05:53:36;21.00;57.90
7077;DHT22;3579;48.956;9.154;2022-10-16T05:56:02;21.00;57.50
7077;DHT22;3579;48.956;9.154;2022-10-16T05:58:32;21.00;57.50
7077;DHT22;3579;48.956;9.154;2022-10-16T06:01:00;21.00;57.50
7077;DHT22;3579;48.956;9.154;2022-10-16T06:03:27;21.00;57.50
7077;DHT22;3579;48.956;9.154;2022-10-16T06:05:53;21.00;57.50
7077;DHT22;3579;48.956;9.154;2022-10-16T06:08:21;21.00;57.50
7077;DHT22;3579;48.956;9.154;2022-10-16T06:10:48;21.00;57.50
7077;DHT22;3579;48.956;9.154;2022-10-16T06:13:14;21.00;57.50
7077;DHT22;3579;48.956;9.154;2022-10-16T06:15:42;21.00;57.50
7077;DHT22;3579;48.956;9.154;2022-10-16T06:18:09;21.00;57.50
7077;DHT22;3579;48.956;9.154;2022-10-16T06:20:36;21.00;57.50
7077;DHT22;3579;48.956;9.154;2022-10-16T06:23:03;21.00;57.50
7077;DHT22;3579;48.956;9.154;2022-10-16T06:25:33;21.00;57.50
7077;DHT22;3579;48.956;9.154;2022-10-16T06:27:59;21.00;57.50
7077;DHT22;3579;48.956;9.154;2022-10-16T06:30:25;21.00;57.60
7077;DHT22;3579;48.956;9.154;2022-10-16T06:32:51;21.00;57.60
7077;DHT22;3579;48.956;9.154;2022-10-16T06:35:17;20.90;57.50
7077;DHT22;3579;48.956;9.154;2022-10-16T06:37:43;20.90;57.50
7077;DHT22;3579;48.956;9.154;2022-10-16T06:40:09;21.00;57.60
7077;DHT22;3579;48.956;9.154;2022-10-16T06:42:36;20.90;57.50
7077;DHT22;3579;48.956;9.154;2022-10-16T06:45:02;21.00;57.60
7077;DHT22;3579;48.956;9.154;2022-10-16T06:47:28;20.90;57.50
7077;DHT22;3579;48.956;9.154;2022-10-16T06:49:54;20.90;57.50
7077;DHT22;3579;48.956;9.154;2022-10-16T06:52:20;20.90;57.60
7077;DHT22;3579;48.956;9.154;2022-10-16T06:54:46;20.90;57.60
7077;DHT22;3579;48.956;9.154;2022-10-16T06:57:12;20.90;57.60
7077;DHT22;3579;48.956;9.154;2022-10-16T06:59:38;20.90;57.60
7077;DHT22;3579;48.956;9.154;2022-10-16T07:02:04;20.90;57.60
7077;DHT22;3579;48.956;9.154;2022-10-16T07:04:30;20.90;57.60
7077;DHT22;3579;48.956;9.154;2022-10-16T07:06:56;20.90;57.60
7077;DHT22;3579;48.956;9.154;2022-10-16T07:09:21;20.90;57.60
7077;DHT22;3579;48.956;9.154;2022-10-16T07:11:47;20.90;57.60
7077;DHT22;3579;48.956;9.154;2022-10-16T07:14:19;20.90;57.60
7077;DHT22;3579;48.956;9.154;2022-10-16T07:16:46;21.00;57.70
7077;DHT22;3579;48.956;9.154;2022-10-16T07:19:13;20.90;57.60
7077;DHT22;3579;48.956;9.154;2022-10-16T07:21:41;20.90;57.60
7077;DHT22;3579;48.956;9.154;2022-10-16T07:24:11;21.00;57.70
7077;DHT22;3579;48.956;9.154;2022-10-16T07:26:39;21.00;57.70
7077;DHT22;3579;48.956;9.154;2022-10-16T07:29:07;21.00;57.70
7077;DHT22;3579;48.956;9.154;2022-10-16T07:31:36;21.00;57.70
7077;DHT22;3579;48.956;9.154;2022-10-16T07:34:03;21.00;57.70
7077;DHT22;3579;48.956;9.154;2022-10-16T07:36:29;21.00;57.70
7077;DHT22;3579;48.956;9.154;2022-10-16T07:38:56;21.00;57.70
7077;DHT22;3579;48.956;9.154;2022-10-16T07:41:22;21.00;57.70
7077;DHT22;3579;48.956;9.154;2022-10-16T07:43:49;21.00;57.60
7077;DHT22;3579;48.956;9.154;2022-10-16T07:46:16;21.00;57.70
7077;DHT22;3579;48.956;9.154;2022-10-16T07:48:43;21.00;57.70
7077;DHT22;3579;48.956;9.154;2022-10-16T07:51:14;21.00;57.70
7077;DHT22;3579;48.956;9.154;2022-10-16T07:53:41;21.00;58.20
7077;DHT22;3579;48.956;9.154;2022-10-16T07:56:07;21.00;57.70
7077;DHT22;3579;48.956;9.154;2022-10-16T07:58:34;21.00;57.70
7077;DHT22;3579;48.956;9.154;2022-10-16T08:01:08;21.10;57.70
7077;DHT22;3579;48.956;9.154;2022-10-16T08:03:34;21.10;57.70
7077;DHT22;3579;48.956;9.154;2022-10-16T08:06:01;21.10;57.70
7077;DHT22;3579;48.956;9.154;2022-10-16T08:08:27;21.10;57.70
7077;DHT22;3579;48.956;9.154;2022-10-16T08:10:54;21.10;57.60
7077;DHT22;3579;48.956;9.154;2022-10-16T08:13:20;21.10;57.70
7077;DHT22;3579;48.956;9.154;2022-10-16T08:15:46;21.10;57.80
7077;DHT22;3579;48.956;9.154;2022-10-16T08:18:14;21.10;57.90
7077;DHT22;3579;48.956;9.154;2022-10-16T08:20:40;21.10;58.00
7077;DHT22;3579;48.956;9.154;2022-10-16T08:23:07;21.10;58.10
7077;DHT22;3579;48.956;9.154;2022-10-16T08:25:36;21.10;58.10
7077;DHT22;3579;48.956;9.154;2022-10-16T08:28:04;21.20;58.20
7077;DHT22;3579;48.956;9.154;2022-10-16T08:30:31;21.20;58.10
7077;DHT22;3579;48.956;9.154;2022-10-16T08:32:57;21.20;58.10
7077;DHT22;3579;48.956;9.154;2022-10-16T08:35:24;21.30;58.30
7077;DHT22;3579;48.956;9.154;2022-10-16T08:37:50;21.30;58.20
7077;DHT22;3579;48.956;9.154;2022-10-16T08:40:19;21.30;58.20
7077;DHT22;3579;48.956;9.154;2022-10-16T08:48:36;21.40;58.10
7077;DHT22;3579;48.956;9.154;2022-10-16T08:51:07;21.50;58.10
7077;DHT22;3579;48.956;9.154;2022-10-16T08:53:49;21.50;58.20
7077;DHT22;3579;48.956;9.154;2022-10-16T08:56:18;21.50;58.20
7077;DHT22;3579;48.956;9.154;2022-10-16T08:58:46;21.50;58.20
7077;DHT22;3579;48.956;9.154;2022-10-16T09:01:15;21.50;58.20
7077;DHT22;3579;48.956;9.154;2022-10-16T09:07:01;21.50;58.20
7077;DHT22;3579;48.956;9.154;2022-10-16T09:15:34;21.60;58.30
7077;DHT22;3579;48.956;9.154;2022-10-16T09:18:18;21.60;58.20
7077;DHT22;3579;48.956;9.154;2022-10-16T09:20:51;21.60;58.20
7077;DHT22;3579;48.956;9.154;2022-10-16T09:23:27;21.60;58.20
7077;DHT22;3579;48.956;9.154;2022-10-16T09:25:55;21.70;58.20
7077;DHT22;3579;48.956;9.154;2022-10-16T09:28:21;21.70;58.30
7077;DHT22;3579;48.956;9.154;2022-10-16T09:30:47;21.70;58.00
7077;DHT22;3579;48.956;9.154;2022-10-16T09:33:19;21.80;58.00
7077;DHT22;3579;48.956;9.154;2022-10-16T09:35:49;21.80;58.00
7077;DHT22;3579;48.956;9.154;2022-10-16T09:40:51;21.90;58.10
7077;DHT22;3579;48.956;9.154;2022-10-16T09:43:41;22.00;58.10
7077;DHT22;3579;48.956;9.154;2022-10-16T09:48:56;22.10;58.10
7077;DHT22;3579;48.956;9.154;2022-10-16T09:51:33;22.10;58.10
7077;DHT22;3579;48.956;9.154;2022-10-16T09:54:15;22.20;58.70
7077;DHT22;3579;48.956;9.154;2022-10-16T09:56:41;22.20;58.00
7077;DHT22;3579;48.956;9.154;2022-10-16T09:59:15;22.30;58.00
7077;DHT22;3579;48.956;9.154;2022-10-16T10:01:44;22.30;58.00
7077;DHT22;3579;48.956;9.154;2022-10-16T10:04:11;22.40;58.10
7077;DHT22;3579;48.956;9.154;2022-10-16T10:06:57;22.40;57.90
7077;DHT22;3579;48.956;9.154;2022-10-16T10:11:56;22.50;57.90
7077;DHT22;3579;48.956;9.154;2022-10-16T10:14:35;22.50;57.80
7077;DHT22;3579;48.956;9.154;2022-10-16T10:22:39;22.60;58.20
7077;DHT22;3579;48.956;9.154;2022-10-16T10:33:48;22.80;57.60
7077;DHT22;3579;48.956;9.154;2022-10-16T10:36:37;22.80;57.70
7077;DHT22;3579;48.956;9.154;2022-10-16T10:39:27;22.80;57.70
7077;DHT22;3579;48.956;9.154;2022-10-16T10:43:12;22.80;57.60
7077;DHT22;3579;48.956;9.154;2022-10-16T10:50:26;22.90;57.50
7077;DHT22;3579;48.956;9.154;2022-10-16T10:53:00;22.90;57.50
7077;DHT22;3579;48.956;9.154;2022-10-16T11:01:01;23.00;58.10
7077;DHT22;3579;48.956;9.154;2022-10-16T11:06:36;23.10;57.50
7077;DHT22;3579;48.956;9.154;2022-10-16T11:09:16;23.10;57.50
7077;DHT22;3579;48.956;9.154;2022-10-16T11:14:32;23.20;57.60
7077;DHT22;3579;48.956;9.154;2022-10-16T11:17:19;23.20;57.50
7077;DHT22;3579;48.956;9.154;2022-10-16T11:20:01;23.20;57.50
7077;DHT22;3579;48.956;9.154;2022-10-16T11:25:29;23.30;57.40
7077;DHT22;3579;48.956;9.154;2022-10-16T11:28:18;23.30;57.40
7077;DHT22;3579;48.956;9.154;2022-10-16T11:30:54;23.30;57.40
7077;DHT22;3579;48.956;9.154;2022-10-16T11:36:19;23.30;57.30
7077;DHT22;3579;48.956;9.154;2022-10-16T11:39:07;23.30;57.30
7077;DHT22;3579;48.956;9.154;2022-10-16T11:46:38;23.40;57.30
7077;DHT22;3579;48.956;9.154;2022-10-16T11:49:15;23.50;57.40
7077;DHT22;3579;48.956;9.154;2022-10-16T11:57:21;23.50;57.40
7077;DHT22;3579;48.956;9.154;2022-10-16T12:00:28;23.50;57.30
7077;DHT22;3579;48.956;9.154;2022-10-16T12:08:19;23.60;57.30
7077;DHT22;3579;48.956;9.154;2022-10-16T12:10:47;23.60;57.30
7077;DHT22;3579;48.956;9.154;2022-10-16T12:16:20;23.60;57.20
7077;DHT22;3579;48.956;9.154;2022-10-16T12:18:48;23.70;57.20
7077;DHT22;3579;48.956;9.154;2022-10-16T12:21:16;23.70;57.30
7077;DHT22;3579;48.956;9.154;2022-10-16T12:23:53;23.70;57.20
7077;DHT22;3579;48.956;9.154;2022-10-16T12:28:52;23.70;57.20
7077;DHT22;3579;48.956;9.154;2022-10-16T12:31:18;23.70;57.10
7077;DHT22;3579;48.956;9.154;2022-10-16T12:34:02;23.70;57.60
7077;DHT22;3579;48.956;9.154;2022-10-16T12:36:33;23.80;57.70
7077;DHT22;3579;48.956;9.154;2022-10-16T12:39:01;23.80;57.20
7077;DHT22;3579;48.956;9.154;2022-10-16T12:41:32;23.80;57.20
7077;DHT22;3579;48.956;9.154;2022-10-16T12:44:00;23.80;57.10
7077;DHT22;3579;48.956;9.154;2022-10-16T12:51:41;23.80;57.10
7077;DHT22;3579;48.956;9.154;2022-10-16T12:54:25;23.80;57.10
7077;DHT22;3579;48.956;9.154;2022-10-16T13:02:56;23.90;57.10
7077;DHT22;3579;48.956;9.154;2022-10-16T13:23:03;24.00;57.10
7077;DHT22;3579;48.956;9.154;2022-10-16T13:28:07;24.00;57.10
7077;DHT22;3579;48.956;9.154;2022-10-16T13:30:50;24.00;57.00
7077;DHT22;3579;48.956;9.154;2022-10-16T13:33:38;24.00;57.00
7077;DHT22;3579;48.956;9.154;2022-10-16T13:36:06;24.00;57.00
7077;DHT22;3579;48.956;9.154;2022-10-16T13:38:34;24.10;57.10
7077;DHT22;3579;48.956;9.154;2022-10-16T13:41:06;24.00;57.00
7077;DHT22;3579;48.956;9.154;2022-10-16T13:43:38;24.00;57.00
7077;DHT22;3579;48.956;9.154;2022-10-16T13:46:10;24.10;57.00
7077;DHT22;3579;48.956;9.154;2022-10-16T13:48:37;24.10;57.00
7077;DHT22;3579;48.956;9.154;2022-10-16T13:51:21;24.10;57.00
7077;DHT22;3579;48.956;9.154;2022-10-16T13:53:48;24.10;57.00
7077;DHT22;3579;48.956;9.154;2022-10-16T13:56:16;24.20;57.10
7077;DHT22;3579;48.956;9.154;2022-10-16T13:58:43;24.20;57.00
7077;DHT22;3579;48.956;9.154;2022-10-16T14:01:30;24.20;57.00
7077;DHT22;3579;48.956;9.154;2022-10-16T14:04:06;24.20;57.00
7077;DHT22;3579;48.956;9.154;2022-10-16T14:06:35;24.20;57.00
7077;DHT22;3579;48.956;9.154;2022-10-16T14:09:05;24.20;56.90
7077;DHT22;3579;48.956;9.154;2022-10-16T14:11:33;24.20;57.50
7077;DHT22;3579;48.956;9.154;2022-10-16T14:14:00;24.20;57.00
7077;DHT22;3579;48.956;9.154;2022-10-16T14:16:30;24.20;56.90
7077;DHT22;3579;48.956;9.154;2022-10-16T14:19:01;24.20;56.90
7077;DHT22;3579;48.956;9.154;2022-10-16T14:21:29;24.20;56.90
7077;DHT22;3579;48.956;9.154;2022-10-16T14:23:55;24.20;56.90
7077;DHT22;3579;48.956;9.154;2022-10-16T14:26:44;24.20;56.90
7077;DHT22;3579;48.956;9.154;2022-10-16T14:29:17;24.30;56.90
7077;DHT22;3579;48.956;9.154;2022-10-16T14:32:00;24.20;56.80
7077;DHT22;3579;48.956;9.154;2022-10-16T14:34:35;24.20;56.80
7077;DHT22;3579;48.956;9.154;2022-10-16T14:37:23;24.20;56.80
7077;DHT22;3579;48.956;9.154;2022-10-16T14:39:53;24.30;56.90
7077;DHT22;3579;48.956;9.154;2022-10-16T14:42:21;24.30;56.90
7077;DHT22;3579;48.956;9.154;2022-10-16T14:44:51;24.30;56.90
7077;DHT22;3579;48.956;9.154;2022-10-16T14:47:23;24.30;56.80
7077;DHT22;3579;48.956;9.154;2022-10-16T14:49:53;24.30;56.80
7077;DHT22;3579;48.956;9.154;2022-10-16T14:52:24;24.30;57.40
7077;DHT22;3579;48.956;9.154;2022-10-16T14:54:51;24.30;56.90
7077;DHT22;3579;48.956;9.154;2022-10-16T14:57:28;24.30;56.80
7077;DHT22;3579;48.956;9.154;2022-10-16T14:59:56;24.30;56.80
7077;DHT22;3579;48.956;9.154;2022-10-16T15:02:31;24.30;56.90
7077;DHT22;3579;48.956;9.154;2022-10-16T15:04:58;24.30;56.80
7077;DHT22;3579;48.956;9.154;2022-10-16T15:07:27;24.30;56.80
7077;DHT22;3579;48.956;9.154;2022-10-16T15:09:53;24.30;56.80
7077;DHT22;3579;48.956;9.154;2022-10-16T15:12:20;24.30;56.80
7077;DHT22;3579;48.956;9.154;2022-10-16T15:14:46;24.40;56.80
7077;DHT22;3579;48.956;9.154;2022-10-16T15:17:12;24.30;56.80
7077;DHT22;3579;48.956;9.154;2022-10-16T15:19:38;24.40;56.80
7077;DHT22;3579;48.956;9.154;2022-10-16T15:22:04;24.30;56.70
7077;DHT22;3579;48.956;9.154;2022-10-16T15:24:30;24.40;56.80
7077;DHT22;3579;48.956;9.154;2022-10-16T15:26:56;24.40;56.80
7077;DHT22;3579;48.956;9.154;2022-10-16T15:29:22;24.30;56.80
7077;DHT22;3579;48.956;9.154;2022-10-16T15:31:48;24.40;56.80
7077;DHT22;3579;48.956;9.154;2022-10-16T15:34:15;24.30;56.80
7077;DHT22;3579;48.956;9.154;2022-10-16T15:36:41;24.30;56.80
7077;DHT22;3579;48.956;9.154;2022-10-16T15:39:18;24.30;56.80
7077;DHT22;3579;48.956;9.154;2022-10-16T15:41:46;24.30;56.80
7077;DHT22;3579;48.956;9.154;2022-10-16T15:44:17;24.30;56.80
7077;DHT22;3579;48.956;9.154;2022-10-16T15:46:43;24.30;56.80
7077;DHT22;3579;48.956;9.154;2022-10-16T15:49:10;24.30;56.80
7077;DHT22;3579;48.956;9.154;2022-10-16T15:51:41;24.30;56.80
7077;DHT22;3579;48.956;9.154;2022-10-16T15:57:48;24.30;56.80
7077;DHT22;3579;48.956;9.154;2022-10-16T16:00:17;24.30;56.80
7077;DHT22;3579;48.956;9.154;2022-10-16T16:02:44;24.30;56.80
7077;DHT22;3579;48.956;9.154;2022-10-16T16:05:15;24.30;56.80
7077;DHT22;3579;48.956;9.154;2022-10-16T16:07:41;24.30;56.80
7077;DHT22;3579;48.956;9.154;2022-10-16T16:10:09;24.30;56.80
7077;DHT22;3579;48.956;9.154;2022-10-16T16:12:35;24.30;57.30
7077;DHT22;3579;48.956;9.154;2022-10-16T16:15:06;24.30;56.80
7077;DHT22;3579;48.956;9.154;2022-10-16T16:17:34;24.30;56.80
7077;DHT22;3579;48.956;9.154;2022-10-16T16:20:00;24.30;56.80
7077;DHT22;3579;48.956;9.154;2022-10-16T16:22:26;24.30;56.70
7077;DHT22;3579;48.956;9.154;2022-10-16T16:24:53;24.30;56.70
7077;DHT22;3579;48.956;9.154;2022-10-16T16:27:19;24.30;56.70
7077;DHT22;3579;48.956;9.154;2022-10-16T16:29:46;24.30;56.80
7077;DHT22;3579;48.956;9.154;2022-10-16T16:32:12;24.30;56.70
7077;DHT22;3579;48.956;9.154;2022-10-16T16:34:38;24.30;56.70
7077;DHT22;3579;48.956;9.154;2022-10-16T16:37:05;24.30;56.70
7077;DHT22;3579;48.956;9.154;2022-10-16T16:39:31;24.30;56.70
7077;DHT22;3579;48.956;9.154;2022-10-16T16:41:57;24.30;56.80
7077;DHT22;3579;48.956;9.154;2022-10-16T16:44:28;24.30;56.80
7077;DHT22;3579;48.956;9.154;2022-10-16T16:46:54;24.30;56.80
7077;DHT22;3579;48.956;9.154;2022-10-16T16:49:20;24.30;57.30
7077;DHT22;3579;48.956;9.154;2022-10-16T16:51:47;24.30;57.30
7077;DHT22;3579;48.956;9.154;2022-10-16T16:54:13;24.20;56.70
7077;DHT22;3579;48.956;9.154;2022-10-16T16:56:40;24.30;57.40
7077;DHT22;3579;48.956;9.154;2022-10-16T16:59:19;24.20;56.70
7077;DHT22;3579;48.956;9.154;2022-10-16T17:01:48;24.20;56.70
7077;DHT22;3579;48.956;9.154;2022-10-16T17:04:14;24.20;56.70
7077;DHT22;3579;48.956;9.154;2022-10-16T17:06:45;24.20;56.80
7077;DHT22;3579;48.956;9.154;2022-10-16T17:09:11;24.10;56.80
7077;DHT22;3579;48.956;9.154;2022-10-16T17:11:41;24.10;56.90
7077;DHT22;3579;48.956;9.154;2022-10-16T17:14:08;24.10;57.00
7077;DHT22;3579;48.956;9.154;2022-10-16T17:16:36;24.10;57.00
7077;DHT22;3579;48.956;9.154;2022-10-16T17:19:08;24.00;57.40
7077;DHT22;3579;48.956;9.154;2022-10-16T17:21:36;24.10;56.90
7077;DHT22;3579;48.956;9.154;2022-10-16T17:24:03;24.10;57.00
7077;DHT22;3579;48.956;9.154;2022-10-16T17:26:29;24.10;56.90
7077;DHT22;3579;48.956;9.154;2022-10-16T17:28:58;24.10;57.00
7077;DHT22;3579;48.956;9.154;2022-10-16T17:31:27;24.10;56.90
7077;DHT22;3579;48.956;9.154;2022-10-16T17:33:54;24.10;56.90
7077;DHT22;3579;48.956;9.154;2022-10-16T17:36:21;24.10;56.90
7077;DHT22;3579;48.956;9.154;2022-10-16T17:38:47;24.10;56.80
7077;DHT22;3579;48.956;9.154;2022-10-16T17:41:23;24.10;56.80
7077;DHT22;3579;48.956;9.154;2022-10-16T17:43:50;24.10;56.70
7077;DHT22;3579;48.956;9.154;2022-10-16T17:46:19;24.10;56.80
7077;DHT22;3579;48.956;9.154;2022-10-16T17:48:47;24.10;56.80
7077;DHT22;3579;48.956;9.154;2022-10-16T17:51:16;24.10;56.80
7077;DHT22;3579;48.956;9.154;2022-10-16T17:53:42;24.10;56.70
7077;DHT22;3579;48.956;9.154;2022-10-16T17:56:11;24.10;56.70
7077;DHT22;3579;48.956;9.154;2022-10-16T17:58:39;24.10;56.70
7077;DHT22;3579;48.956;9.154;2022-10-16T18:01:29;24.10;56.70
7077;DHT22;3579;48.956;9.154;2022-10-16T18:06:30;24.00;56.50
7077;DHT22;3579;48.956;9.154;2022-10-16T18:08:57;24.10;57.10
7077;DHT22;3579;48.956;9.154;2022-10-16T18:11:24;24.20;56.70
7077;DHT22;3579;48.956;9.154;2022-10-16T18:13:52;24.00;56.50
7077;DHT22;3579;48.956;9.154;2022-10-16T18:16:19;24.00;56.40
7077;DHT22;3579;48.956;9.154;2022-10-16T18:18:45;24.10;56.60
7077;DHT22;3579;48.956;9.154;2022-10-16T18:21:13;24.00;56.50
7077;DHT22;3579;48.956;9.154;2022-10-16T18:23:40;24.10;56.50
7077;DHT22;3579;48.956;9.154;2022-10-16T18:26:07;24.00;56.40
7077;DHT22;3579;48.956;9.154;2022-10-16T18:28:34;24.00;57.00